sensor_id;sensor_type;location;lat;lon;timestamp;pressure;altitude;pressure_sealevel;temperature;humidity
12203;BME280;6164;42.178;24.622;2023-04-21T00:01:48;99184.66;;;11.62;100.00
12203;BME280;6164;42.178;24.622;2023-04-21T00:04:15;99191.97;;;11.46;100.00
12203;BME280;6164;42.178;24.622;2023-04-21T00:06:42;99180.22;;;11.34;100.00
12203;BME280;6164;42.178;24.622;2023-04-21T00:09:10;99180.78;;;11.15;100.00
12203;BME280;6164;42.178;24.622;2023-04-21T00:11:36;99180.09;;;10.84;100.00
12203;BME280;6164;42.178;24.622;2023-04-21T00:14:03;99189.34;;;10.65;100.00
12203;BME280;6164;42.178;24.622;2023-04-21T00:16:30;99190.88;;;10.59;100.00
12203;BME280;6164;42.178;24.622;2023-04-21T00:18:57;99198.09;;;10.43;100.00
12203;BME280;6164;42.178;24.622;2023-04-21T00:21:23;99197.81;;;10.38;100.00
12203;BME280;6164;42.178;24.622;2023-04-21T00:23:51;99199.06;;;10.27;100.00
12203;BME280;6164;42.178;24.622;2023-04-21T00:26:19;99198.81;;;10.14;100.00
12203;BME280;6164;42.178;24.622;2023-04-21T00:28:45;99198.69;;;10.08;100.00
12203;BME280;6164;42.178;24.622;2023-04-21T00:31:12;99202.31;;;9.99;100.00
12203;BME280;6164;42.178;24.622;2023-04-21T00:33:39;99201.50;;;9.68;100.00
12203;BME280;6164;42.178;24.622;2023-04-21T00:36:06;99202.94;;;9.40;100.00
12203;BME280;6164;42.178;24.622;2023-04-21T00:38:32;99199.50;;;9.31;100.00
12203;BME280;6164;42.178;24.622;2023-04-21T00:40:59;99208.91;;;9.25;100.00
12203;BME280;6164;42.178;24.622;2023-04-21T00:43:27;99206.47;;;9.24;100.00
12203;BME280;6164;42.178;24.622;2023-04-21T00:45:54;99206.31;;;9.17;100.00
12203;BME280;6164;42.178;24.622;2023-04-21T00:48:21;99205.16;;;9.12;100.00
12203;BME280;6164;42.178;24.622;2023-04-21T00:50:47;99204.97;;;9.21;100.00
12203;BME280;6164;42.178;24.622;2023-04-21T00:53:14;99207.47;;;9.15;100.00
12203;BME280;6164;42.178;24.622;2023-04-21T00:55:41;99206.47;;;9.08;100.00
12203;BME280;6164;42.178;24.622;2023-04-21T00:58:08;99203.34;;;9.04;100.00
12203;BME280;6164;42.178;24.622;2023-04-21T01:00:36;99194.97;;;8.93;100.00
12203;BME280;6164;42.178;24.622;2023-04-21T01:03:04;99192.38;;;9.01;100.00
12203;BME280;6164;42.178;24.622;2023-04-21T01:05:32;99195.97;;;9.00;100.00
12203;BME280;6164;42.178;24.622;2023-04-21T01:08:00;99197.47;;;8.78;100.00
12203;BME280;6164;42.178;24.622;2023-04-21T01:10:27;99195.03;;;8.77;100.00
12203;BME280;6164;42.178;24.622;2023-04-21T01:12:53;99209.00;;;8.77;100.00
12203;BME280;6164;42.178;24.622;2023-04-21T01:15:20;99202.94;;;8.61;100.00
12203;BME280;6164;42.178;24.622;2023-04-21T01:17:48;99207.53;;;8.51;100.00
12203;BME280;6164;42.178;24.622;2023-04-21T01:20:18;99209.84;;;8.54;100.00
12203;BME280;6164;42.178;24.622;2023-04-21T01:22:46;99215.25;;;8.60;100.00
12203;BME280;6164;42.178;24.622;2023-04-21T01:25:15;99213.47;;;8.45;100.00
12203;BME280;6164;42.178;24.622;2023-04-21T01:27:43;99215.25;;;8.44;100.00
12203;BME280;6164;42.178;24.622;2023-04-21T01:30:10;99213.13;;;8.48;100.00
12203;BME280;6164;42.178;24.622;2023-04-21T01:32:36;99218.72;;;8.53;100.00
12203;BME280;6164;42.178;24.622;2023-04-21T01:35:04;99220.84;;;8.57;100.00
12203;BME280;6164;42.178;24.622;2023-04-21T01:37:32;99223.81;;;8.62;100.00
12203;BME280;6164;42.178;24.622;2023-04-21T01:40:04;99222.34;;;8.60;100.00
12203;BME280;6164;42.178;24.622;2023-04-21T01:42:32;99201.44;;;8.42;100.00
12203;BME280;6164;42.178;24.622;2023-04-21T01:44:59;99217.06;;;8.52;100.00
12203;BME280;6164;42.178;24.622;2023-04-21T01:47:26;99221.69;;;8.50;100.00
12203;BME280;6164;42.178;24.622;2023-04-21T01:49:53;99222.03;;;8.55;100.00
12203;BME280;6164;42.178;24.622;2023-04-21T01:52:20;99219.69;;;8.44;100.00
12203;BME280;6164;42.178;24.622;2023-04-21T01:54:47;99214.25;;;8.37;100.00
12203;BME280;6164;42.178;24.622;2023-04-21T01:57:16;99199.75;;;8.17;100.00
12203;BME280;6164;42.178;24.622;2023-04-21T01:59:42;99213.75;;;8.26;100.00
12203;BME280;6164;42.178;24.622;2023-04-21T02:02:09;99216.88;;;8.29;100.00
12203;BME280;6164;42.178;24.622;2023-04-21T02:04:36;99223.16;;;8.28;100.00
12203;BME280;6164;42.178;24.622;2023-04-21T02:07:03;99222.31;;;8.28;100.00
12203;BME280;6164;42.178;24.622;2023-04-21T02:09:30;99223.94;;;8.29;100.00
12203;BME280;6164;42.178;24.622;2023-04-21T02:11:57;99226.38;;;8.22;100.00
12203;BME280;6164;42.178;24.622;2023-04-21T02:14:26;99226.38;;;8.22;100.00
12203;BME280;6164;42.178;24.622;2023-04-21T02:16:52;99228.41;;;8.28;100.00
12203;BME280;6164;42.178;24.622;2023-04-21T02:19:20;99232.50;;;8.31;100.00
12203;BME280;6164;42.178;24.622;2023-04-21T02:21:47;99230.72;;;8.39;100.00
12203;BME280;6164;42.178;24.622;2023-04-21T02:24:14;99208.66;;;8.32;100.00
12203;BME280;6164;42.178;24.622;2023-04-21T02:26:40;99232.38;;;8.48;100.00
12203;BME280;6164;42.178;24.622;2023-04-21T02:29:07;99218.06;;;8.43;100.00
12203;BME280;6164;42.178;24.622;2023-04-21T02:31:35;99214.09;;;8.39;100.00
12203;BME280;6164;42.178;24.622;2023-04-21T02:34:02;99221.19;;;8.38;100.00
12203;BME280;6164;42.178;24.622;2023-04-21T02:36:28;99217.22;;;8.42;100.00
12203;BME280;6164;42.178;24.622;2023-04-21T02:38:56;99209.34;;;8.34;100.00
12203;BME280;6164;42.178;24.622;2023-04-21T02:41:23;99214.09;;;8.39;100.00
12203;BME280;6164;42.178;24.622;2023-04-21T02:43:49;99212.63;;;8.44;100.00
12203;BME280;6164;42.178;24.622;2023-04-21T02:46:16;99214.94;;;8.47;100.00
12203;BME280;6164;42.178;24.622;2023-04-21T02:48:44;99200.81;;;8.48;100.00
12203;BME280;6164;42.178;24.622;2023-04-21T02:51:11;99211.31;;;8.56;100.00
12203;BME280;6164;42.178;24.622;2023-04-21T02:53:38;99204.41;;;8.63;100.00
12203;BME280;6164;42.178;24.622;2023-04-21T02:56:06;99207.19;;;8.70;100.00
12203;BME280;6164;42.178;24.622;2023-04-21T02:58:33;99203.41;;;8.72;100.00
12203;BME280;6164;42.178;24.622;2023-04-21T03:01:01;99204.06;;;8.82;100.00
12203;BME280;6164;42.178;24.622;2023-04-21T03:03:28;99199.63;;;8.83;100.00
12203;BME280;6164;42.178;24.622;2023-04-21T03:05:57;99202.56;;;8.96;100.00
12203;BME280;6164;42.178;24.622;2023-04-21T03:08:24;99208.34;;;8.99;100.00
12203;BME280;6164;42.178;24.622;2023-04-21T03:10:50;99210.97;;;8.99;100.00
12203;BME280;6164;42.178;24.622;2023-04-21T03:13:17;99204.69;;;9.08;100.00
12203;BME280;6164;42.178;24.622;2023-04-21T03:15:44;99211.25;;;9.12;100.00
12203;BME280;6164;42.178;24.622;2023-04-21T03:18:11;99206.47;;;9.08;100.00
12203;BME280;6164;42.178;24.622;2023-04-21T03:20:37;99209.97;;;9.00;100.00
12203;BME280;6164;42.178;24.622;2023-04-21T03:23:06;99211.56;;;9.09;100.00
12203;BME280;6164;42.178;24.622;2023-04-21T03:25:32;99216.19;;;9.15;100.00
12203;BME280;6164;42.178;24.622;2023-04-21T03:27:59;99219.00;;;9.14;100.00
12203;BME280;6164;42.178;24.622;2023-04-21T03:30:26;99221.13;;;9.10;100.00
12203;BME280;6164;42.178;24.622;2023-04-21T03:32:53;99222.63;;;9.05;100.00
12203;BME280;6164;42.178;24.622;2023-04-21T03:35:20;99222.47;;;8.98;100.00
12203;BME280;6164;42.178;24.622;2023-04-21T03:37:47;99219.16;;;8.96;100.00
12203;BME280;6164;42.178;24.622;2023-04-21T03:40:16;99220.03;;;8.89;100.00
12203;BME280;6164;42.178;24.622;2023-04-21T03:42:43;99233.66;;;8.92;100.00
12203;BME280;6164;42.178;24.622;2023-04-21T03:45:10;99235.16;;;8.87;100.00
12203;BME280;6164;42.178;24.622;2023-04-21T03:47:36;99235.81;;;8.73;100.00
12203;BME280;6164;42.178;24.622;2023-04-21T03:50:04;99236.97;;;8.70;100.00
12203;BME280;6164;42.178;24.622;2023-04-21T03:52:31;99236.13;;;8.70;100.00
12203;BME280;6164;42.178;24.622;2023-04-21T03:54:57;99242.22;;;8.78;100.00
12203;BME280;6164;42.178;24.622;2023-04-21T03:57:26;99244.84;;;8.78;100.00
12203;BME280;6164;42.178;24.622;2023-04-21T03:59:53;99245.50;;;8.80;100.00
12203;BME280;6164;42.178;24.622;2023-04-21T04:02:19;99245.84;;;8.77;100.00
12203;BME280;6164;42.178;24.622;2023-04-21T04:04:46;99247.66;;;8.69;100.00
12203;BME280;6164;42.178;24.622;2023-04-21T04:07:13;99252.59;;;8.80;100.00
12203;BME280;6164;42.178;24.622;2023-04-21T04:09:41;99233.03;;;8.82;100.00
12203;BME280;6164;42.178;24.622;2023-04-21T04:12:08;99249.78;;;8.97;100.00
12203;BME280;6164;42.178;24.622;2023-04-21T04:14:36;99250.28;;;9.01;100.00
12203;BME280;6164;42.178;24.622;2023-04-21T04:17:03;99252.91;;;9.09;100.00
12203;BME280;6164;42.178;24.622;2023-04-21T04:19:30;99252.06;;;9.16;100.00
12203;BME280;6164;42.178;24.622;2023-04-21T04:21:57;99265.88;;;9.26;100.00
12203;BME280;6164;42.178;24.622;2023-04-21T04:24:25;99271.44;;;9.40;100.00
12203;BME280;6164;42.178;24.622;2023-04-21T04:26:52;99273.88;;;9.49;100.00
12203;BME280;6164;42.178;24.622;2023-04-21T04:29:19;99276.78;;;9.70;100.00
12203;BME280;6164;42.178;24.622;2023-04-21T04:31:49;99268.19;;;9.76;100.00
12203;BME280;6164;42.178;24.622;2023-04-21T04:34:15;99275.22;;;9.84;100.00
12203;BME280;6164;42.178;24.622;2023-04-21T04:36:42;99279.28;;;10.02;100.00
12203;BME280;6164;42.178;24.622;2023-04-21T04:39:09;99274.28;;;10.15;100.00
12203;BME280;6164;42.178;24.622;2023-04-21T04:41:36;99281.66;;;10.28;100.00
12203;BME280;6164;42.178;24.622;2023-04-21T04:44:03;99287.69;;;10.36;100.00
12203;BME280;6164;42.178;24.622;2023-04-21T04:46:30;99293.38;;;10.48;100.00
12203;BME280;6164;42.178;24.622;2023-04-21T04:48:58;99293.34;;;10.56;100.00
12203;BME280;6164;42.178;24.622;2023-04-21T04:51:25;99287.91;;;10.57;100.00
12203;BME280;6164;42.178;24.622;2023-04-21T04:53:52;99294.94;;;10.65;100.00
12203;BME280;6164;42.178;24.622;2023-04-21T04:56:19;99293.06;;;10.74;100.00
12203;BME280;6164;42.178;24.622;2023-04-21T04:58:46;99288.25;;;10.77;100.00
12203;BME280;6164;42.178;24.622;2023-04-21T05:01:13;99292.81;;;10.83;100.00
12203;BME280;6164;42.178;24.622;2023-04-21T05:03:40;99294.22;;;10.94;100.00
12203;BME280;6164;42.178;24.622;2023-04-21T05:06:09;99280.72;;;10.89;100.00
12203;BME280;6164;42.178;24.622;2023-04-21T05:08:35;99289.50;;;11.04;100.00
12203;BME280;6164;42.178;24.622;2023-04-21T05:11:02;99283.97;;;11.13;100.00
12203;BME280;6164;42.178;24.622;2023-04-21T05:13:29;99268.59;;;11.17;100.00
12203;BME280;6164;42.178;24.622;2023-04-21T05:15:56;99291.13;;;11.42;100.00
12203;BME280;6164;42.178;24.622;2023-04-21T05:18:23;99287.03;;;11.54;100.00
12203;BME280;6164;42.178;24.622;2023-04-21T05:20:50;99285.06;;;11.70;100.00
12203;BME280;6164;42.178;24.622;2023-04-21T05:23:18;99285.59;;;11.80;100.00
12203;BME280;6164;42.178;24.622;2023-04-21T05:25:45;99280.22;;;11.88;100.00
12203;BME280;6164;42.178;24.622;2023-04-21T05:28:12;99263.59;;;11.94;100.00
12203;BME280;6164;42.178;24.622;2023-04-21T05:30:39;99263.75;;;12.08;100.00
12203;BME280;6164;42.178;24.622;2023-04-21T05:33:05;99260.47;;;12.20;100.00
12203;BME280;6164;42.178;24.622;2023-04-21T05:35:33;99259.78;;;12.33;100.00
12203;BME280;6164;42.178;24.622;2023-04-21T05:38:00;99255.19;;;12.41;100.00
12203;BME280;6164;42.178;24.622;2023-04-21T05:40:28;99259.59;;;12.55;100.00
12203;BME280;6164;42.178;24.622;2023-04-21T05:42:55;99250.78;;;12.69;100.00
12203;BME280;6164;42.178;24.622;2023-04-21T05:45:21;99237.78;;;12.74;100.00
12203;BME280;6164;42.178;24.622;2023-04-21T05:47:48;99241.00;;;12.91;100.00
12203;BME280;6164;42.178;24.622;2023-04-21T05:50:15;99244.34;;;12.99;100.00
12203;BME280;6164;42.178;24.622;2023-04-21T05:52:42;99231.84;;;13.14;100.00
12203;BME280;6164;42.178;24.622;2023-04-21T05:55:08;99228.00;;;13.23;100.00
12203;BME280;6164;42.178;24.622;2023-04-21T05:57:36;99221.94;;;13.30;100.00
12203;BME280;6164;42.178;24.622;2023-04-21T06:00:04;99222.66;;;13.51;100.00
12203;BME280;6164;42.178;24.622;2023-04-21T06:02:31;99221.91;;;13.57;100.00
12203;BME280;6164;42.178;24.622;2023-04-21T06:04:58;99218.06;;;13.66;100.00
12203;BME280;6164;42.178;24.622;2023-04-21T06:07:24;99202.19;;;13.79;100.00
12203;BME280;6164;42.178;24.622;2023-04-21T06:09:51;99193.06;;;13.88;100.00
12203;BME280;6164;42.178;24.622;2023-04-21T06:12:18;99213.94;;;14.04;100.00
12203;BME280;6164;42.178;24.622;2023-04-21T06:14:46;99209.06;;;14.14;100.00
12203;BME280;6164;42.178;24.622;2023-04-21T06:17:15;99217.09;;;14.27;100.00
12203;BME280;6164;42.178;24.622;2023-04-21T06:19:42;99211.59;;;14.35;100.00
12203;BME280;6164;42.178;24.622;2023-04-21T06:22:09;99218.16;;;14.46;100.00
12203;BME280;6164;42.178;24.622;2023-04-21T06:24:35;99205.88;;;14.51;98.51
12203;BME280;6164;42.178;24.622;2023-04-21T06:27:02;99215.94;;;14.69;94.63
12203;BME280;6164;42.178;24.622;2023-04-21T06:29:32;99218.41;;;14.84;93.87
12203;BME280;6164;42.178;24.622;2023-04-21T06:32:00;99216.56;;;14.91;89.88
12203;BME280;6164;42.178;24.622;2023-04-21T06:34:27;99217.34;;;15.04;89.25
12203;BME280;6164;42.178;24.622;2023-04-21T06:36:54;99205.28;;;15.15;88.31
12203;BME280;6164;42.178;24.622;2023-04-21T06:39:20;99198.72;;;15.24;85.93
12203;BME280;6164;42.178;24.622;2023-04-21T06:41:47;99200.16;;;15.26;83.08
12203;BME280;6164;42.178;24.622;2023-04-21T06:44:14;99206.69;;;15.37;82.99
12203;BME280;6164;42.178;24.622;2023-04-21T06:46:40;99212.00;;;15.37;81.39
12203;BME280;6164;42.178;24.622;2023-04-21T06:49:09;99215.69;;;15.49;81.11
12203;BME280;6164;42.178;24.622;2023-04-21T06:51:36;99208.50;;;15.56;80.60
12203;BME280;6164;42.178;24.622;2023-04-21T06:54:02;99199.06;;;15.66;81.43
12203;BME280;6164;42.178;24.622;2023-04-21T06:56:30;99205.78;;;15.69;80.00
12203;BME280;6164;42.178;24.622;2023-04-21T06:58:57;99197.16;;;15.80;81.29
12203;BME280;6164;42.178;24.622;2023-04-21T07:01:23;99204.25;;;15.99;81.20
12203;BME280;6164;42.178;24.622;2023-04-21T07:03:50;99201.56;;;16.06;80.08
12203;BME280;6164;42.178;24.622;2023-04-21T07:06:18;99207.06;;;16.11;79.63
12203;BME280;6164;42.178;24.622;2023-04-21T07:08:45;99218.31;;;16.13;78.21
12203;BME280;6164;42.178;24.622;2023-04-21T07:11:12;99220.22;;;16.37;80.52
12203;BME280;6164;42.178;24.622;2023-04-21T07:13:38;99223.09;;;16.35;76.75
12203;BME280;6164;42.178;24.622;2023-04-21T07:16:05;99209.50;;;16.50;78.56
12203;BME280;6164;42.178;24.622;2023-04-21T07:18:32;99216.94;;;16.72;78.49
12203;BME280;6164;42.178;24.622;2023-04-21T07:20:59;99216.66;;;16.80;78.15
12203;BME280;6164;42.178;24.622;2023-04-21T07:23:27;99221.75;;;16.88;74.80
12203;BME280;6164;42.178;24.622;2023-04-21T07:25:53;99222.97;;;16.86;71.82
12203;BME280;6164;42.178;24.622;2023-04-21T07:28:20;99234.91;;;16.83;69.12
12203;BME280;6164;42.178;24.622;2023-04-21T07:30:47;99218.81;;;16.96;69.86
12203;BME280;6164;42.178;24.622;2023-04-21T07:33:14;99221.25;;;16.98;68.04
12203;BME280;6164;42.178;24.622;2023-04-21T07:35:40;99217.94;;;17.02;68.93
12203;BME280;6164;42.178;24.622;2023-04-21T07:38:07;99208.88;;;17.03;68.52
12203;BME280;6164;42.178;24.622;2023-04-21T07:40:36;99208.03;;;17.09;68.11
12203;BME280;6164;42.178;24.622;2023-04-21T07:43:02;99214.19;;;17.28;68.25
12203;BME280;6164;42.178;24.622;2023-04-21T07:45:29;99204.31;;;17.53;68.94
12203;BME280;6164;42.178;24.622;2023-04-21T07:47:56;99216.72;;;17.48;67.25
12203;BME280;6164;42.178;24.622;2023-04-21T07:50:23;99211.78;;;17.63;68.42
12203;BME280;6164;42.178;24.622;2023-04-21T07:52:50;99229.00;;;17.67;65.87
12203;BME280;6164;42.178;24.622;2023-04-21T07:55:17;99236.56;;;17.52;64.86
12203;BME280;6164;42.178;24.622;2023-04-21T07:57:45;99223.81;;;17.72;65.43
12203;BME280;6164;42.178;24.622;2023-04-21T08:00:12;99216.72;;;17.66;64.30
12203;BME280;6164;42.178;24.622;2023-04-21T08:02:39;99223.38;;;17.75;64.44
12203;BME280;6164;42.178;24.622;2023-04-21T08:05:07;99232.88;;;17.71;62.41
12203;BME280;6164;42.178;24.622;2023-04-21T08:07:33;99228.50;;;17.76;63.42
12203;BME280;6164;42.178;24.622;2023-04-21T08:10:00;99214.41;;;17.87;63.22
12203;BME280;6164;42.178;24.622;2023-04-21T08:12:28;99223.13;;;17.94;61.69
12203;BME280;6164;42.178;24.622;2023-04-21T08:14:56;99210.25;;;18.21;62.68
12203;BME280;6164;42.178;24.622;2023-04-21T08:17:23;99206.94;;;18.37;62.49
12203;BME280;6164;42.178;24.622;2023-04-21T08:19:49;99194.72;;;18.29;61.26
12203;BME280;6164;42.178;24.622;2023-04-21T08:22:16;99217.28;;;18.33;59.81
12203;BME280;6164;42.178;24.622;2023-04-21T08:24:43;99192.41;;;18.63;61.54
12203;BME280;6164;42.178;24.622;2023-04-21T08:27:10;99233.97;;;18.47;58.12
12203;BME280;6164;42.178;24.622;2023-04-21T08:29:36;99220.16;;;18.50;59.29
12203;BME280;6164;42.178;24.622;2023-04-21T08:32:07;99212.91;;;18.39;58.92
12203;BME280;6164;42.178;24.622;2023-04-21T08:34:34;99203.69;;;18.53;59.56
12203;BME280;6164;42.178;24.622;2023-04-21T08:37:00;99209.63;;;18.67;59.29
12203;BME280;6164;42.178;24.622;2023-04-21T08:39:28;99226.78;;;18.48;57.66
12203;BME280;6164;42.178;24.622;2023-04-21T08:41:55;99225.41;;;18.38;57.68
12203;BME280;6164;42.178;24.622;2023-04-21T08:44:23;99227.28;;;18.56;56.25
12203;BME280;6164;42.178;24.622;2023-04-21T08:46:50;99230.47;;;18.76;56.55
12203;BME280;6164;42.178;24.622;2023-04-21T08:49:19;99229.88;;;18.74;56.95
12203;BME280;6164;42.178;24.622;2023-04-21T08:51:46;99214.56;;;18.93;57.16
12203;BME280;6164;42.178;24.622;2023-04-21T08:54:13;99254.09;;;18.91;53.50
12203;BME280;6164;42.178;24.622;2023-04-21T08:56:39;99256.66;;;18.97;53.49
12203;BME280;6164;42.178;24.622;2023-04-21T08:59:06;99232.38;;;19.10;54.91
12203;BME280;6164;42.178;24.622;2023-04-21T09:01:33;99220.06;;;19.32;56.11
12203;BME280;6164;42.178;24.622;2023-04-21T09:04:21;99253.47;;;19.30;52.15
12203;BME280;6164;42.178;24.622;2023-04-21T09:06:47;99241.56;;;19.26;53.03
12203;BME280;6164;42.178;24.622;2023-04-21T09:09:14;99239.97;;;19.36;52.99
12203;BME280;6164;42.178;24.622;2023-04-21T09:11:41;99265.25;;;19.29;51.09
12203;BME280;6164;42.178;24.622;2023-04-21T09:14:07;99241.47;;;19.32;51.91
12203;BME280;6164;42.178;24.622;2023-04-21T09:16:35;99223.66;;;19.49;53.32
12203;BME280;6164;42.178;24.622;2023-04-21T09:19:02;99205.72;;;19.61;54.18
12203;BME280;6164;42.178;24.622;2023-04-21T09:21:30;99178.44;;;19.76;55.23
12203;BME280;6164;42.178;24.622;2023-04-21T09:24:03;99221.28;;;19.88;52.27
12203;BME280;6164;42.178;24.622;2023-04-21T09:26:30;99223.84;;;19.83;51.72
12203;BME280;6164;42.178;24.622;2023-04-21T09:28:57;99230.13;;;19.88;51.34
12203;BME280;6164;42.178;24.622;2023-04-21T09:31:24;99246.13;;;19.72;50.81
12203;BME280;6164;42.178;24.622;2023-04-21T09:33:54;99229.34;;;19.64;50.40
12203;BME280;6164;42.178;24.622;2023-04-21T09:36:22;99219.09;;;19.73;51.83
12203;BME280;6164;42.178;24.622;2023-04-21T09:38:56;99214.66;;;19.79;51.58
12203;BME280;6164;42.178;24.622;2023-04-21T09:41:23;99225.81;;;19.87;50.23
12203;BME280;6164;42.178;24.622;2023-04-21T09:43:50;99207.47;;;20.07;51.02
12203;BME280;6164;42.178;24.622;2023-04-21T09:46:18;99193.44;;;20.28;52.00
12203;BME280;6164;42.178;24.622;2023-04-21T09:48:46;99210.91;;;20.31;50.93
12203;BME280;6164;42.178;24.622;2023-04-21T09:51:15;99196.31;;;20.55;51.53
12203;BME280;6164;42.178;24.622;2023-04-21T09:53:43;99203.19;;;20.62;50.65
12203;BME280;6164;42.178;24.622;2023-04-21T09:56:13;99216.41;;;20.52;50.46
12203;BME280;6164;42.178;24.622;2023-04-21T09:58:44;99194.31;;;20.78;50.61
12203;BME280;6164;42.178;24.622;2023-04-21T10:01:12;99230.81;;;20.79;47.86
12203;BME280;6164;42.178;24.622;2023-04-21T10:03:40;99193.53;;;21.11;50.39
12203;BME280;6164;42.178;24.622;2023-04-21T10:06:07;99226.78;;;20.93;48.49
12203;BME280;6164;42.178;24.622;2023-04-21T10:08:34;99278.28;;;20.62;45.79
12203;BME280;6164;42.178;24.622;2023-04-21T10:11:02;99264.22;;;20.72;46.65
12203;BME280;6164;42.178;24.622;2023-04-21T10:13:31;99262.22;;;20.95;46.42
12203;BME280;6164;42.178;24.622;2023-04-21T10:16:03;99232.88;;;21.22;47.99
12203;BME280;6164;42.178;24.622;2023-04-21T10:18:34;99217.78;;;21.54;47.90
12203;BME280;6164;42.178;24.622;2023-04-21T10:21:02;99214.75;;;21.67;47.01
12203;BME280;6164;42.178;24.622;2023-04-21T10:23:42;99281.03;;;22.00;43.87
12203;BME280;6164;42.178;24.622;2023-04-21T10:26:11;99312.88;;;22.08;43.36
12203;BME280;6164;42.178;24.622;2023-04-21T10:28:45;99308.31;;;22.08;42.91
12203;BME280;6164;42.178;24.622;2023-04-21T10:31:23;99330.09;;;22.29;42.66
12203;BME280;6164;42.178;24.622;2023-04-21T10:34:19;99339.16;;;21.84;42.79
12203;BME280;6164;42.178;24.622;2023-04-21T10:37:12;99323.09;;;21.89;43.12
12203;BME280;6164;42.178;24.622;2023-04-21T10:39:45;99325.88;;;21.61;43.50
12203;BME280;6164;42.178;24.622;2023-04-21T10:42:21;99320.66;;;21.55;43.54
12203;BME280;6164;42.178;24.622;2023-04-21T10:45:00;99337.06;;;22.08;42.87
12203;BME280;6164;42.178;24.622;2023-04-21T10:47:29;99351.84;;;22.49;40.83
12203;BME280;6164;42.178;24.622;2023-04-21T10:50:00;99372.78;;;22.63;41.78
12203;BME280;6164;42.178;24.622;2023-04-21T10:52:35;99382.06;;;22.77;40.04
12203;BME280;6164;42.178;24.622;2023-04-21T10:55:07;99389.00;;;22.52;40.61
12203;BME280;6164;42.178;24.622;2023-04-21T10:57:37;99381.03;;;22.57;40.01
12203;BME280;6164;42.178;24.622;2023-04-21T11:00:08;99388.19;;;22.51;39.95
12203;BME280;6164;42.178;24.622;2023-04-21T11:02:36;99426.59;;;22.85;39.84
12203;BME280;6164;42.178;24.622;2023-04-21T11:05:04;99461.00;;;22.61;38.59
12203;BME280;6164;42.178;24.622;2023-04-21T11:07:31;99469.03;;;22.78;37.99
12203;BME280;6164;42.178;24.622;2023-04-21T11:09:59;99445.97;;;23.08;38.93
12203;BME280;6164;42.178;24.622;2023-04-21T11:12:27;99447.59;;;23.09;39.17
12203;BME280;6164;42.178;24.622;2023-04-21T11:14:55;99408.50;;;23.07;42.27
12203;BME280;6164;42.178;24.622;2023-04-21T11:17:24;99365.03;;;22.93;42.65
12203;BME280;6164;42.178;24.622;2023-04-21T11:19:53;99385.03;;;22.76;41.21
12203;BME280;6164;42.178;24.622;2023-04-21T11:22:21;99363.50;;;22.76;42.88
12203;BME280;6164;42.178;24.622;2023-04-21T11:24:49;99350.66;;;22.83;42.31
12203;BME280;6164;42.178;24.622;2023-04-21T11:27:16;99356.69;;;22.95;41.69
12203;BME280;6164;42.178;24.622;2023-04-21T11:29:43;99371.75;;;22.91;42.11
12203;BME280;6164;42.178;24.622;2023-04-21T11:32:11;99335.03;;;22.80;43.00
12203;BME280;6164;42.178;24.622;2023-04-21T11:34:39;99357.53;;;22.74;42.31
12203;BME280;6164;42.178;24.622;2023-04-21T11:37:06;99316.38;;;23.26;43.52
12203;BME280;6164;42.178;24.622;2023-04-21T11:39:33;99387.66;;;23.46;40.50
12203;BME280;6164;42.178;24.622;2023-04-21T11:42:00;99384.00;;;23.30;40.59
12203;BME280;6164;42.178;24.622;2023-04-21T11:44:35;99415.75;;;23.28;39.96
12203;BME280;6164;42.178;24.622;2023-04-21T11:47:12;99384.91;;;23.40;39.97
12203;BME280;6164;42.178;24.622;2023-04-21T11:49:45;99382.56;;;23.86;40.71
12203;BME280;6164;42.178;24.622;2023-04-21T11:52:22;99364.56;;;24.33;40.30
12203;BME280;6164;42.178;24.622;2023-04-21T11:54:55;99387.84;;;24.02;40.95
12203;BME280;6164;42.178;24.622;2023-04-21T11:57:23;99392.69;;;23.37;40.70
12203;BME280;6164;42.178;24.622;2023-04-21T11:59:50;99373.59;;;22.90;42.52
12203;BME280;6164;42.178;24.622;2023-04-21T12:02:22;99373.34;;;22.92;41.51
12203;BME280;6164;42.178;24.622;2023-04-21T12:04:57;99383.59;;;22.68;40.75
12203;BME280;6164;42.178;24.622;2023-04-21T12:07:24;99373.50;;;22.59;41.93
12203;BME280;6164;42.178;24.622;2023-04-21T12:09:51;99354.72;;;22.64;41.94
12203;BME280;6164;42.178;24.622;2023-04-21T12:12:18;99371.88;;;22.79;40.76
12203;BME280;6164;42.178;24.622;2023-04-21T12:14:45;99375.44;;;22.85;41.33
12203;BME280;6164;42.178;24.622;2023-04-21T12:17:11;99395.28;;;22.79;40.67
12203;BME280;6164;42.178;24.622;2023-04-21T12:19:40;99362.75;;;23.07;40.97
12203;BME280;6164;42.178;24.622;2023-04-21T12:22:09;99402.59;;;23.31;39.33
12203;BME280;6164;42.178;24.622;2023-04-21T12:24:37;99422.03;;;23.12;39.19
12203;BME280;6164;42.178;24.622;2023-04-21T12:27:04;99435.53;;;22.69;39.46
12203;BME280;6164;42.178;24.622;2023-04-21T12:29:31;99445.56;;;22.35;38.96
12203;BME280;6164;42.178;24.622;2023-04-21T12:32:00;99418.03;;;22.50;40.53
12203;BME280;6164;42.178;24.622;2023-04-21T12:34:26;99406.34;;;23.04;39.59
12203;BME280;6164;42.178;24.622;2023-04-21T12:36:53;99442.13;;;23.53;36.93
12203;BME280;6164;42.178;24.622;2023-04-21T12:39:22;99402.81;;;23.88;41.10
12203;BME280;6164;42.178;24.622;2023-04-21T12:41:48;99389.03;;;24.16;40.01
12203;BME280;6164;42.178;24.622;2023-04-21T12:44:15;99388.59;;;24.34;38.85
12203;BME280;6164;42.178;24.622;2023-04-21T12:46:42;99392.00;;;24.72;39.10
12203;BME280;6164;42.178;24.622;2023-04-21T12:49:08;99442.09;;;25.09;36.89
12203;BME280;6164;42.178;24.622;2023-04-21T12:51:36;99449.69;;;25.27;37.87
12203;BME280;6164;42.178;24.622;2023-04-21T12:54:03;99470.59;;;25.47;35.17
12203;BME280;6164;42.178;24.622;2023-04-21T12:56:31;99446.28;;;25.82;37.71
12203;BME280;6164;42.178;24.622;2023-04-21T12:58:58;99521.47;;;25.65;34.12
12203;BME280;6164;42.178;24.622;2023-04-21T13:01:25;99513.59;;;25.73;34.67